createdAt,value
2023-03-25T00:00:21.317Z,97873.50
2023-03-25T00:02:51.711Z,97875.72
2023-03-25T00:05:23.521Z,97888.25
2023-03-25T00:07:53.394Z,97867.75
2023-03-25T00:10:23.204Z,97877.59
2023-03-25T00:12:52.570Z,97870.09
2023-03-25T00:15:22.290Z,97865.06
2023-03-25T00:17:50.694Z,97842.19
2023-03-25T00:20:19.250Z,97872.91
2023-03-25T00:22:47.541Z,97880.66
2023-03-25T00:25:19.049Z,97860.38
2023-03-25T00:27:50.995Z,97858.84
2023-03-25T00:30:21.208Z,97861.91
2023-03-25T00:32:52.712Z,97857.78
2023-03-25T00:35:22.053Z,97860.50
2023-03-25T00:37:57.691Z,97861.78
2023-03-25T00:40:30.512Z,97851.81
2023-03-25T00:43:00.216Z,97854.28
2023-03-25T00:45:29.007Z,97829.06
2023-03-25T00:47:57.815Z,97844.28
2023-03-25T00:50:26.300Z,97847.81
2023-03-25T00:52:54.641Z,97847.44
2023-03-25T00:55:25.469Z,97836.19
2023-03-25T00:57:53.879Z,97852.41
2023-03-25T01:00:23.624Z,97841.34
2023-03-25T01:02:54.342Z,97838.91
2023-03-25T01:05:24.841Z,97834.78
2023-03-25T01:07:53.097Z,97838.44
2023-03-25T01:10:21.717Z,97839.63
2023-03-25T01:12:49.978Z,97852.50
2023-03-25T01:15:20.022Z,97852.50
2023-03-25T01:17:50.100Z,97856.38
2023-03-25T01:20:18.674Z,97844.06
2023-03-25T01:22:47.969Z,97838.81
2023-03-25T01:25:16.328Z,97843.72
2023-03-25T01:27:44.665Z,97836.31
2023-03-25T01:30:15.582Z,97834.75
2023-03-25T01:32:46.164Z,97832.59
2023-03-25T01:35:16.136Z,97825.94
2023-03-25T01:37:44.712Z,97831.16
2023-03-25T01:40:19.052Z,97826.22
2023-03-25T01:42:47.558Z,97824.31
2023-03-25T01:45:22.974Z,97830.25
2023-03-25T01:48:01.145Z,97828.84
2023-03-25T01:50:35.959Z,97830.38
2023-03-25T01:53:07.895Z,97822.38
2023-03-25T01:55:37.664Z,97822.16
2023-03-25T01:58:11.872Z,97819.69
2023-03-25T02:00:41.505Z,97829.06
2023-03-25T02:03:10.146Z,97815.94
2023-03-25T02:05:47.391Z,97808.91
2023-03-25T02:08:16.618Z,97807.63
2023-03-25T02:10:47.047Z,97804.72
2023-03-25T02:13:18.106Z,97819.00
2023-03-25T02:16:07.626Z,97864.59
2023-03-25T02:18:43.743Z,97932.59
2023-03-25T02:21:58.165Z,97932.97
2023-03-25T02:24:53.828Z,97925.00
2023-03-25T02:27:33.741Z,97936.31
2023-03-25T02:30:31.171Z,97929.13
2023-03-25T02:33:26.274Z,97952.41
2023-03-25T02:36:22.869Z,97964.00
2023-03-25T02:38:57.941Z,97963.00
2023-03-25T02:41:35.293Z,97969.53
2023-03-25T02:44:09.067Z,97951.03
2023-03-25T02:46:45.780Z,97950.09
2023-03-25T02:49:22.591Z,97904.06
2023-03-25T02:51:56.421Z,97890.41
2023-03-25T02:54:29.509Z,97879.47
2023-03-25T02:57:00.638Z,97863.88
2023-03-25T02:59:33.201Z,97856.56
2023-03-25T03:02:05.927Z,97860.22
2023-03-25T03:04:34.896Z,97860.06
2023-03-25T03:07:03.964Z,97867.66
2023-03-25T03:09:45.278Z,97853.50
2023-03-25T03:12:36.010Z,97857.81
2023-03-25T03:15:18.719Z,97846.13
2023-03-25T03:17:58.120Z,97852.53
2023-03-25T03:20:39.975Z,97846.53
2023-03-25T03:23:14.669Z,97847.34
2023-03-25T03:25:51.352Z,97835.53
2023-03-25T03:28:27.654Z,97844.28
2023-03-25T03:31:02.368Z,97855.13
2023-03-25T03:33:34.871Z,97852.94
2023-03-25T03:36:08.551Z,97860.44
2023-03-25T03:38:41.292Z,97860.84
2023-03-25T03:41:13.679Z,97869.41
2023-03-25T03:43:46.229Z,97867.13
2023-03-25T03:46:20.747Z,97864.00
2023-03-25T03:48:53.742Z,97867.75
2023-03-25T03:51:26.416Z,97864.38
2023-03-25T03:54:00.548Z,97865.41
2023-03-25T03:56:37.175Z,97862.16
2023-03-25T03:59:11.207Z,97880.13
2023-03-25T04:01:46.110Z,97879.31
2023-03-25T04:04:20.132Z,97891.50
2023-03-25T04:06:56.848Z,97902.22
2023-03-25T04:09:28.921Z,97904.28
2023-03-25T04:12:04.287Z,97902.44
2023-03-25T04:14:33.340Z,97905.16
2023-03-25T04:17:01.643Z,97902.25
2023-03-25T04:19:29.978Z,97901.06
2023-03-25T04:21:58.261Z,97901.78
2023-03-25T04:24:31.338Z,97908.13
2023-03-25T04:27:03.395Z,97906.97
2023-03-25T04:29:32.096Z,97909.69
2023-03-25T04:32:01.699Z,97901.38
2023-03-25T04:34:30.050Z,97902.84
2023-03-25T04:36:58.836Z,97907.97
2023-03-25T04:39:29.508Z,97897.88
2023-03-25T04:41:57.759Z,97908.66
2023-03-25T04:44:28.401Z,97911.81
2023-03-25T04:46:58.854Z,97904.88
2023-03-25T04:49:29.806Z,97920.25
2023-03-25T04:51:59.125Z,97922.03
2023-03-25T04:54:27.382Z,97923.50
2023-03-25T04:56:59.095Z,97927.53
2023-03-25T04:59:28.881Z,97923.03
2023-03-25T05:01:57.618Z,97924.81
2023-03-25T05:04:25.912Z,97924.53
2023-03-25T05:06:54.436Z,97922.81
2023-03-25T05:09:22.956Z,97906.81
2023-03-25T05:11:52.892Z,97896.50
2023-03-25T05:14:23.023Z,97892.03
2023-03-25T05:16:52.687Z,97897.41
2023-03-25T05:19:21.478Z,97907.13
2023-03-25T05:21:49.889Z,97894.94
2023-03-25T05:24:18.245Z,97891.25
2023-03-25T05:26:46.500Z,97906.47
2023-03-25T05:29:16.270Z,97886.81
2023-03-25T05:31:46.274Z,97900.38
2023-03-25T05:34:16.998Z,97899.78
2023-03-25T05:36:45.928Z,97895.66
2023-03-25T05:39:14.378Z,97896.22
2023-03-25T05:41:45.488Z,97892.47
2023-03-25T05:44:15.457Z,97888.88
2023-03-25T05:46:44.081Z,97892.19
2023-03-25T05:49:12.381Z,97891.34
2023-03-25T05:51:44.932Z,97909.59
2023-03-25T05:54:13.511Z,97908.38
2023-03-25T05:56:42.708Z,97903.16
2023-03-25T05:59:11.319Z,97904.56
2023-03-25T06:01:41.913Z,97904.13
2023-03-25T06:04:12.815Z,97917.31
2023-03-25T06:06:41.365Z,97917.72
2023-03-25T06:09:11.810Z,97918.50
2023-03-25T06:11:40.135Z,97920.38
2023-03-25T06:14:09.233Z,97927.66
2023-03-25T06:16:39.606Z,97928.53
2023-03-25T06:19:10.197Z,97933.19
2023-03-25T06:21:38.992Z,97931.19
2023-03-25T06:24:08.208Z,97926.97
2023-03-25T06:26:40.402Z,97930.25
2023-03-25T06:29:09.058Z,97938.25
2023-03-25T06:31:37.553Z,97928.25
2023-03-25T06:34:05.918Z,97938.00
2023-03-25T06:36:34.671Z,97941.41
2023-03-25T06:39:05.145Z,97933.66
2023-03-25T06:41:37.863Z,97931.09
2023-03-25T06:44:24.645Z,97931.31
2023-03-25T06:47:11.796Z,97931.78
2023-03-25T06:49:50.863Z,97929.41
2023-03-25T06:52:19.223Z,97935.66
2023-03-25T06:54:47.877Z,97933.66
2023-03-25T06:57:18.182Z,97930.69
2023-03-25T06:59:49.601Z,97925.19
2023-03-25T07:02:20.437Z,97934.19
2023-03-25T07:04:48.814Z,97927.41
2023-03-25T07:07:19.537Z,97932.34
2023-03-25T07:09:52.164Z,97939.28
2023-03-25T07:12:20.482Z,97932.13
2023-03-25T07:14:53.535Z,97935.88
2023-03-25T07:17:24.739Z,97943.59
2023-03-25T07:19:53.307Z,97930.81
2023-03-25T07:22:21.602Z,97936.69
2023-03-25T07:24:51.131Z,97936.50
2023-03-25T07:27:19.997Z,97943.72
2023-03-25T07:29:59.232Z,97937.97
2023-03-25T07:32:29.927Z,97937.50
2023-03-25T07:34:58.521Z,97931.69
2023-03-25T07:37:26.873Z,97929.97
2023-03-25T07:39:57.474Z,97926.00
2023-03-25T07:42:28.145Z,97933.25
2023-03-25T07:45:16.692Z,97932.97
2023-03-25T07:47:50.171Z,97940.38
2023-03-25T07:50:19.183Z,97935.59
2023-03-25T07:52:47.555Z,97941.69
2023-03-25T07:55:16.967Z,97919.06
2023-03-25T07:57:47.392Z,97939.97
2023-03-25T08:00:17.646Z,97939.25
2023-03-25T08:02:45.990Z,97939.75
2023-03-25T08:05:21.176Z,97928.03
2023-03-25T08:07:50.176Z,97930.72
2023-03-25T08:10:19.771Z,97923.44
2023-03-25T08:12:48.450Z,97913.47
2023-03-25T08:15:18.280Z,97913.19
2023-03-25T08:17:47.772Z,97914.00
2023-03-25T08:20:16.268Z,97921.00
2023-03-25T08:22:45.726Z,97924.94
2023-03-25T08:25:15.091Z,97922.28
2023-03-25T08:27:43.761Z,97929.28
2023-03-25T08:30:13.730Z,97917.72
2023-03-25T08:32:46.222Z,97917.97
2023-03-25T08:35:14.774Z,97930.69
2023-03-25T08:37:43.039Z,97928.81
2023-03-25T08:40:11.925Z,97932.88
2023-03-25T08:42:40.847Z,97921.31
2023-03-25T08:45:11.350Z,97938.41
2023-03-25T08:47:39.803Z,97941.25
2023-03-25T08:50:10.632Z,97955.91
2023-03-25T08:52:38.997Z,97963.34
2023-03-25T08:55:10.498Z,97960.88
2023-03-25T08:57:42.366Z,97965.66
2023-03-25T09:00:14.198Z,97976.44
2023-03-25T09:02:43.274Z,97963.66
2023-03-25T09:05:15.950Z,97968.00
2023-03-25T09:07:44.458Z,97960.88
2023-03-25T09:10:14.172Z,97960.97
2023-03-25T09:12:42.807Z,97958.41
2023-03-25T09:15:13.180Z,97951.34
2023-03-25T09:17:43.586Z,97953.56
2023-03-25T09:20:13.357Z,97954.19
2023-03-25T09:22:42.292Z,97940.63
2023-03-25T09:25:11.307Z,97949.66
2023-03-25T09:27:39.699Z,97950.31
2023-03-25T09:30:11.220Z,97953.84
2023-03-25T09:32:39.854Z,97943.53
2023-03-25T09:35:08.877Z,97956.16
2023-03-25T09:37:38.631Z,97953.44
2023-03-25T09:40:09.104Z,97947.63
2023-03-25T09:43:09.126Z,97946.28
2023-03-25T09:45:41.014Z,97953.91
2023-03-25T09:48:24.754Z,97961.44
2023-03-25T09:50:53.172Z,97963.56
2023-03-25T09:53:30.033Z,97968.94
2023-03-25T09:55:59.584Z,97979.63
2023-03-25T09:58:36.227Z,97973.75
2023-03-25T10:01:27.149Z,97962.13
2023-03-25T10:04:08.875Z,97957.38
2023-03-25T10:06:48.626Z,97959.25
2023-03-25T10:09:36.039Z,97975.03
2023-03-25T10:12:12.916Z,97966.00
2023-03-25T10:14:54.354Z,97959.03
2023-03-25T10:17:31.429Z,97973.78
2023-03-25T10:20:07.196Z,97975.66
2023-03-25T10:22:42.593Z,97966.75
2023-03-25T10:25:18.611Z,97964.97
2023-03-25T10:27:50.679Z,97964.53
2023-03-25T10:30:22.795Z,97972.94
2023-03-25T10:32:55.384Z,97979.41
2023-03-25T10:35:29.885Z,97974.00
2023-03-25T10:38:08.763Z,97961.94
2023-03-25T10:40:49.934Z,97942.09
2023-03-25T10:43:25.892Z,97967.91
2023-03-25T10:45:59.004Z,97957.75
2023-03-25T10:48:50.043Z,97947.06
2023-03-25T10:51:24.387Z,97951.16
2023-03-25T10:53:53.850Z,97940.81
2023-03-25T10:56:27.270Z,97922.84
2023-03-25T10:58:57.670Z,97920.03
2023-03-25T11:01:35.816Z,97911.72
2023-03-25T11:04:06.072Z,97908.88
2023-03-25T11:06:37.504Z,97896.41
2023-03-25T11:09:18.118Z,97886.88
2023-03-25T11:11:48.406Z,97889.88
2023-03-25T11:14:24.345Z,97905.91
2023-03-25T11:16:58.158Z,97892.91
2023-03-25T11:19:28.636Z,97900.38
2023-03-25T11:22:01.868Z,97895.41
2023-03-25T11:24:33.587Z,97886.50
2023-03-25T11:27:04.134Z,97890.75
2023-03-25T11:29:36.432Z,97893.00
2023-03-25T11:32:09.477Z,97897.28
2023-03-25T11:34:42.081Z,97895.44
2023-03-25T11:37:17.537Z,97881.00
2023-03-25T11:39:51.072Z,97895.25
2023-03-25T11:42:32.486Z,97873.22
2023-03-25T11:45:03.492Z,97896.72
2023-03-25T11:47:34.215Z,97896.63
2023-03-25T11:50:03.748Z,97885.94
2023-03-25T11:52:40.458Z,97887.09
2023-03-25T11:55:18.977Z,97893.13
2023-03-25T11:57:50.650Z,97905.56
2023-03-25T12:00:31.804Z,97898.97
2023-03-25T12:03:00.977Z,97885.13
2023-03-25T12:05:29.579Z,97872.81
2023-03-25T12:08:15.020Z,97877.00
2023-03-25T12:10:53.166Z,97876.75
2023-03-25T12:13:43.515Z,97854.03
2023-03-25T12:16:23.728Z,97879.09
2023-03-25T12:19:03.884Z,97903.06
2023-03-25T12:21:50.008Z,97905.56
2023-03-25T12:24:29.311Z,97906.00
2023-03-25T12:27:17.015Z,97925.94
2023-03-25T12:29:53.456Z,97943.59
2023-03-25T12:32:26.707Z,97959.69
2023-03-25T12:35:09.203Z,97929.59
2023-03-25T12:37:46.367Z,97945.00
2023-03-25T12:40:29.782Z,97944.22
2023-03-25T12:43:05.612Z,97951.31
2023-03-25T12:45:51.081Z,97942.94
2023-03-25T12:48:27.848Z,97949.50
2023-03-25T12:51:01.263Z,97939.56
2023-03-25T12:53:42.612Z,97925.28
2023-03-25T12:56:31.156Z,97935.47
2023-03-25T12:59:07.700Z,97928.56
2023-03-25T13:01:41.359Z,97925.81
2023-03-25T13:04:13.927Z,97937.34
2023-03-25T13:06:43.667Z,97924.19
2023-03-25T13:09:13.839Z,97937.38
2023-03-25T13:11:46.881Z,97922.56
2023-03-25T13:14:21.618Z,97924.03
2023-03-25T13:16:52.782Z,97932.72
2023-03-25T13:19:27.231Z,97922.13
2023-03-25T13:21:57.370Z,97910.19
2023-03-25T13:24:33.297Z,97918.59
2023-03-25T13:27:06.244Z,97932.63
2023-03-25T13:29:40.402Z,97921.22
2023-03-25T13:32:18.734Z,97925.13
2023-03-25T13:34:52.978Z,97913.41
2023-03-25T13:37:26.513Z,97925.06
2023-03-25T13:40:22.445Z,97903.66
2023-03-25T13:42:56.577Z,97903.78
2023-03-25T13:45:26.523Z,97880.34
2023-03-25T13:48:06.354Z,97899.03
2023-03-25T13:50:36.458Z,97896.81
2023-03-25T13:53:08.691Z,97910.81
2023-03-25T13:55:40.902Z,97935.63
2023-03-25T13:58:32.201Z,97958.28
2023-03-25T14:01:29.533Z,97959.53
2023-03-25T14:04:30.277Z,97959.91
2023-03-25T14:07:28.224Z,97942.22
2023-03-25T14:10:26.512Z,97929.81
2023-03-25T14:12:57.813Z,97920.69
2023-03-25T14:15:32.704Z,97932.59
2023-03-25T14:18:01.849Z,97926.78
2023-03-25T14:20:35.900Z,97934.81
2023-03-25T14:23:07.163Z,97915.09
2023-03-25T14:25:40.169Z,97925.75
2023-03-25T14:28:17.295Z,97925.22
2023-03-25T14:30:45.881Z,97921.34
2023-03-25T14:33:14.209Z,97916.91
2023-03-25T14:35:51.340Z,97926.81
2023-03-25T14:38:52.491Z,97905.59
2023-03-25T14:42:01.823Z,97915.16
2023-03-25T14:44:33.010Z,97915.09
2023-03-25T14:47:30.200Z,97910.50
2023-03-25T14:50:05.800Z,97906.47
2023-03-25T14:52:40.891Z,97903.47
2023-03-25T14:55:15.938Z,97886.53
2023-03-25T14:57:45.532Z,97862.00
2023-03-25T15:00:28.209Z,97886.28
2023-03-25T15:03:02.684Z,97893.38
2023-03-25T15:05:34.734Z,97885.19
2023-03-25T15:08:14.290Z,97881.56
2023-03-25T15:10:45.053Z,97872.50
2023-03-25T15:13:17.360Z,97874.31
2023-03-25T15:15:59.793Z,97877.25
2023-03-25T15:19:03.454Z,97881.09
2023-03-25T15:21:34.781Z,97873.41
2023-03-25T15:24:10.894Z,97874.81
2023-03-25T15:26:41.781Z,97884.94
2023-03-25T15:29:35.085Z,97872.34
2023-03-25T15:32:15.797Z,97883.47
2023-03-25T15:34:59.180Z,97888.19
2023-03-25T15:37:54.904Z,97868.38
2023-03-25T15:40:33.220Z,97886.13
2023-03-25T15:43:21.449Z,97876.72
2023-03-25T15:46:11.459Z,97894.75
2023-03-25T15:49:00.744Z,97904.28
2023-03-25T15:51:52.797Z,97901.78
2023-03-25T15:54:32.027Z,97887.84
2023-03-25T15:57:09.468Z,97888.97
2023-03-25T15:59:43.644Z,97898.44
2023-03-25T16:02:15.691Z,97905.31
2023-03-25T16:04:48.002Z,97906.91
2023-03-25T16:07:20.196Z,97904.34
2023-03-25T16:09:50.118Z,97903.31
2023-03-25T16:12:22.918Z,97914.59
2023-03-25T16:14:53.051Z,97917.34
2023-03-25T16:17:27.490Z,97909.06
2023-03-25T16:19:58.028Z,97908.34
2023-03-25T16:22:28.313Z,97902.94
2023-03-25T16:24:59.479Z,97890.66
2023-03-25T16:27:32.438Z,97902.28
2023-03-25T16:30:00.819Z,97920.59
2023-03-25T16:32:33.416Z,97911.47
2023-03-25T16:35:01.583Z,97900.13
2023-03-25T16:37:32.812Z,97903.25
2023-03-25T16:40:00.833Z,97899.44
2023-03-25T16:42:32.722Z,97901.09
2023-03-25T16:45:01.225Z,97911.44
2023-03-25T16:47:33.165Z,97908.44
2023-03-25T16:50:03.200Z,97924.88
2023-03-25T16:52:33.539Z,97930.72
2023-03-25T16:55:19.055Z,97930.97
2023-03-25T16:57:48.920Z,97926.31
2023-03-25T17:00:22.999Z,97931.78
2023-03-25T17:02:53.938Z,97923.50
2023-03-25T17:05:25.472Z,97925.88
2023-03-25T17:07:59.055Z,97920.31
2023-03-25T17:10:29.841Z,97942.13
2023-03-25T17:13:01.267Z,97936.59
2023-03-25T17:15:29.418Z,97931.31
2023-03-25T17:18:01.159Z,97928.78
2023-03-25T17:20:34.636Z,97935.91
2023-03-25T17:23:04.183Z,97939.19
2023-03-25T17:25:34.953Z,97933.03
2023-03-25T17:28:21.072Z,97936.63
2023-03-25T17:30:51.520Z,97929.25
2023-03-25T17:33:20.893Z,97940.50
2023-03-25T17:35:52.886Z,97928.38
2023-03-25T17:38:24.634Z,97912.53
2023-03-25T17:40:59.488Z,97924.66
2023-03-25T17:43:30.380Z,97916.41
2023-03-25T17:45:58.850Z,97924.59
2023-03-25T17:48:29.407Z,97917.81
2023-03-25T17:50:58.355Z,97926.97
2023-03-25T17:53:26.691Z,97930.56
2023-03-25T17:55:54.962Z,97930.09
2023-03-25T17:58:23.609Z,97935.84
2023-03-25T18:00:53.371Z,97938.63
2023-03-25T18:03:23.808Z,97943.97
2023-03-25T18:05:54.079Z,97959.59
2023-03-25T18:08:23.384Z,97963.19
2023-03-25T18:10:52.249Z,97970.16
2023-03-25T18:13:21.637Z,97962.22
2023-03-25T18:15:49.677Z,97969.34
2023-03-25T18:18:20.384Z,97965.16
2023-03-25T18:20:49.855Z,97967.91
2023-03-25T18:23:18.255Z,97969.63
2023-03-25T18:25:46.393Z,97966.41
2023-03-25T18:28:15.223Z,97970.38
2023-03-25T18:30:44.575Z,97974.31
2023-03-25T18:33:12.868Z,97976.53
2023-03-25T18:35:42.909Z,97971.59
2023-03-25T18:38:14.557Z,97985.59
2023-03-25T18:40:42.561Z,97997.38
2023-03-25T18:43:10.686Z,97989.56
2023-03-25T18:45:38.992Z,97983.59
2023-03-25T18:48:07.414Z,97987.59
2023-03-25T18:50:36.454Z,97968.75
2023-03-25T18:53:06.351Z,97996.63
2023-03-25T18:55:35.314Z,97988.50
2023-03-25T18:58:04.272Z,97995.69
2023-03-25T19:00:35.650Z,98002.19
2023-03-25T19:03:04.503Z,97994.84
2023-03-25T19:05:33.344Z,97997.38
2023-03-25T19:08:01.698Z,98015.72
2023-03-25T19:10:32.349Z,98013.44
2023-03-25T19:13:00.597Z,98014.72
2023-03-25T19:15:30.429Z,98041.97
2023-03-25T19:18:01.679Z,98045.59
2023-03-25T19:20:33.545Z,98043.94
2023-03-25T19:23:02.866Z,98046.63
2023-03-25T19:25:32.708Z,98033.50
2023-03-25T19:28:01.015Z,98050.03
2023-03-25T19:30:31.414Z,98056.28
2023-03-25T19:33:03.595Z,98054.16
2023-03-25T19:35:33.073Z,98054.50
2023-03-25T19:38:03.283Z,98054.16
2023-03-25T19:40:35.417Z,98030.69
2023-03-25T19:43:06.364Z,98058.97
2023-03-25T19:45:35.628Z,98043.59
2023-03-25T19:48:04.236Z,98047.22
2023-03-25T19:50:34.660Z,98038.41
2023-03-25T19:53:05.974Z,98044.63
2023-03-25T19:55:36.175Z,98039.94
2023-03-25T19:58:07.392Z,98049.00
2023-03-25T20:00:35.754Z,98045.94
2023-03-25T20:03:04.118Z,98042.41
2023-03-25T20:05:33.808Z,98046.78
2023-03-25T20:08:02.152Z,98042.19
2023-03-25T20:10:31.557Z,98042.66
2023-03-25T20:13:03.587Z,98041.09
2023-03-25T20:15:32.433Z,98052.03
2023-03-25T20:18:00.880Z,98040.56
2023-03-25T20:20:29.284Z,98032.34
2023-03-25T20:23:00.920Z,98030.56
2023-03-25T20:25:29.440Z,98033.72
2023-03-25T20:27:58.007Z,98041.69
2023-03-25T20:30:28.166Z,98044.63
2023-03-25T20:32:58.109Z,98039.16
2023-03-25T20:35:27.907Z,98045.00
2023-03-25T20:37:56.244Z,98037.72
2023-03-25T20:40:33.865Z,98031.41
2023-03-25T20:43:13.106Z,98024.81
2023-03-25T20:45:43.624Z,98036.69
2023-03-25T20:48:12.304Z,98027.38
2023-03-25T20:50:40.890Z,98033.38
2023-03-25T20:53:09.397Z,98043.25
2023-03-25T20:55:37.782Z,98048.78
2023-03-25T20:58:06.179Z,98048.75
2023-03-25T21:00:35.064Z,98043.38
2023-03-25T21:03:05.034Z,98047.13
2023-03-25T21:05:33.973Z,98061.31
2023-03-25T21:08:04.087Z,98054.88
2023-03-25T21:10:32.410Z,98059.78
2023-03-25T21:13:00.771Z,98057.81
2023-03-25T21:15:30.204Z,98070.25
2023-03-25T21:18:00.908Z,98073.16
2023-03-25T21:20:32.595Z,98062.25
2023-03-25T21:23:00.964Z,98070.47
2023-03-25T21:25:35.100Z,98066.47
2023-03-25T21:28:04.884Z,98039.63
2023-03-25T21:30:33.402Z,98070.59
2023-03-25T21:33:03.984Z,98072.69
2023-03-25T21:35:34.411Z,98070.69
2023-03-25T21:38:07.645Z,98074.22
2023-03-25T21:40:39.233Z,98075.97
2023-03-25T21:43:08.477Z,98080.09
2023-03-25T21:45:36.834Z,98085.84
2023-03-25T21:48:08.282Z,98083.13
2023-03-25T21:50:38.301Z,98084.47
2023-03-25T21:53:08.287Z,98082.19
2023-03-25T21:55:38.380Z,98089.88
2023-03-25T21:58:06.910Z,98096.75
2023-03-25T22:02:36.565Z,98103.72
2023-03-25T22:05:05.174Z,98109.13
2023-03-25T22:07:33.347Z,98120.78
2023-03-25T22:10:01.338Z,98138.97
2023-03-25T22:12:29.989Z,98131.00
2023-03-25T22:14:58.510Z,98137.19
2023-03-25T22:17:26.560Z,98129.44
2023-03-25T22:19:56.120Z,98128.22
2023-03-25T22:22:24.161Z,98130.75
2023-03-25T22:24:52.244Z,98130.31
2023-03-25T22:27:20.299Z,98130.03
2023-03-25T22:29:48.299Z,98134.03
2023-03-25T22:32:16.306Z,98132.78
2023-03-25T22:34:44.437Z,98114.00
2023-03-25T22:37:13.831Z,98121.16
2023-03-25T22:39:41.933Z,98121.16
2023-03-25T22:42:12.060Z,98121.75
2023-03-25T22:44:40.080Z,98103.31
2023-03-25T22:47:08.100Z,98089.47
2023-03-25T22:49:37.573Z,98074.16
2023-03-25T22:52:06.130Z,98065.72
2023-03-25T22:54:35.640Z,98055.88
2023-03-25T22:57:03.737Z,98036.38
2023-03-25T22:59:31.875Z,98035.50
2023-03-25T23:01:59.907Z,98033.91
2023-03-25T23:04:28.022Z,98039.34
2023-03-25T23:07:07.349Z,98037.66
2023-03-25T23:09:44.934Z,98031.06
2023-03-25T23:12:14.372Z,98037.13
2023-03-25T23:14:49.779Z,98038.81
2023-03-25T23:17:17.953Z,98033.38
2023-03-25T23:19:47.092Z,98031.25
2023-03-25T23:22:16.648Z,98040.78
2023-03-25T23:24:46.187Z,98030.19
2023-03-25T23:27:14.311Z,98034.19
2023-03-25T23:29:42.648Z,98031.94
2023-03-25T23:32:10.842Z,98033.31
2023-03-25T23:34:40.203Z,98028.16
2023-03-25T23:37:09.205Z,98028.06
2023-03-25T23:39:40.464Z,98035.22
2023-03-25T23:42:10.254Z,98034.38
2023-03-25T23:44:38.525Z,98033.75
2023-03-25T23:47:06.815Z,98030.41
2023-03-25T23:49:38.265Z,98026.41
2023-03-25T23:52:10.974Z,98032.94
2023-03-25T23:54:39.729Z,98035.63
2023-03-25T23:57:11.379Z,98028.16
2023-03-25T23:59:39.438Z,98036.88
